If you wish to contribute or participate in the discussions about articles you are invited to join SKYbrary as a registered user

 Actions

Difference between revisions of "HKEL"

From SKYbrary Wiki

HKEL
(Created page with "{{Airport |Airport_Name=Eldoret International Airport |ICAO_Region=AFI |ICAO_Territory=HK |IATA Code=EDL |Elevation=7050ft |Location=Eldoret |Main city served=Eldoret |ISO_Sub...")
 
(No difference)

Latest revision as of 09:29, 9 October 2019

Airport
ICAO: HKEL – IATA: EDL
Summary
Name Eldoret International Airport
Region Africa
Territory Kenya KE.gif
Location Eldoret, Uasin County
Serving Eldoret
Elevation 2,148.84 m
7,050 ft2,148.84 m
Coordinates 0° 24' 15.98" N, 35° 14' 20.00" E
Runways
Designator Length Width Surface ROPS
8/26 3499 m11,479.659 ft
45 m147.638 ft
ASP yes/yes


METAR
Observation HKEL 231200Z 15010KT 9999 FEW023CB SCT024 BKN090 23/12 Q1020
Station Eldoret
Date/Time 23 October 2019 12:00:00
Wind direction 150°
Wind speed 10 kts
Lowest cloud amount few clouds
Temperature 23°C
Dew point 12°C
Humidity 49%
QNH 1020 hPa
Weather condition n/a

Eldoret Airport, is located in the city of Eldoret, in Uasin Gishu County, in the midwestern Kenya, close to the International border with Uganda.

Climatology

Tropical Savannah climate (Köppen climate classification Aw)

Maps

Terrain

Loading map...

Airport Layout

Loading map...


Accidents & Serious Incidents at or in vicinity of HKEL

None on SKYbrary